Terminal Aerodrome Forecast
Issued by NWS Kansas City/Pleasant Hill, MO

Home | Current Version | Previous Version | Text Only | Print | Product List | Glossary On
Versions: 1 2 3 4 5 6 7 8 9 10 11 12 13 14
834
FTUS43 KEAX 210520
TAFMCI
TAF
KMCI 210520Z 2106/2206 15006KT P6SM SCT060
     FM211600 17013KT P6SM FEW060 SCT250
     FM220000 17011KT P6SM SCT250=

USA.gov is the U.S. government's official web portal to all federal, state and local government web resources and services.